Terminal Aerodrome Forecast
Issued by NWS

Home | Current Version | Previous Version | Text Only | Print | Product List | Glossary On
Versions: 1 2 3 4 5 6 7 8 9 10 11 12 13 14 15 16
000
FTUS46 KLOX 231700
TAFSBP
TAF
KSBP 231730Z 2318/2418 31012KT P6SM SKC
     FM232100 32018G28KT P6SM SKC
     FM240100 32014KT P6SM SKC
     FM240900 32006KT P6SM SKC=

USA.gov is the U.S. government's official web portal to all federal, state and local government web resources and services.